sensor_id;sensor_type;location;lat;lon;timestamp;P1;durP1;ratioP1;P2;durP2;ratioP2
39400;SDS011;75540;50.000;7.360;2024-02-26T00:00:27;2.85;;;1.13;;
39400;SDS011;75540;50.000;7.360;2024-02-26T00:02:55;1.67;;;1.05;;
39400;SDS011;75540;50.000;7.360;2024-02-26T00:05:24;1.30;;;0.90;;
39400;SDS011;75540;50.000;7.360;2024-02-26T00:07:53;1.35;;;1.02;;
39400;SDS011;75540;50.000;7.360;2024-02-26T00:10:22;2.78;;;1.42;;
39400;SDS011;75540;50.000;7.360;2024-02-26T00:12:50;1.33;;;0.95;;
39400;SDS011;75540;50.000;7.360;2024-02-26T00:15:18;1.52;;;1.08;;
39400;SDS011;75540;50.000;7.360;2024-02-26T00:17:47;0.88;;;0.60;;
39400;SDS011;75540;50.000;7.360;2024-02-26T00:20:15;2.92;;;1.10;;
39400;SDS011;75540;50.000;7.360;2024-02-26T00:22:43;2.22;;;1.13;;
39400;SDS011;75540;50.000;7.360;2024-02-26T00:25:13;1.95;;;0.90;;
39400;SDS011;75540;50.000;7.360;2024-02-26T00:27:41;2.08;;;0.77;;
39400;SDS011;75540;50.000;7.360;2024-02-26T00:30:10;1.92;;;0.85;;
39400;SDS011;75540;50.000;7.360;2024-02-26T00:32:39;1.60;;;0.82;;
39400;SDS011;75540;50.000;7.360;2024-02-26T00:35:07;1.50;;;0.88;;
39400;SDS011;75540;50.000;7.360;2024-02-26T00:37:37;1.95;;;1.00;;
39400;SDS011;75540;50.000;7.360;2024-02-26T00:40:05;0.65;;;0.65;;
39400;SDS011;75540;50.000;7.360;2024-02-26T00:42:36;1.75;;;0.90;;
39400;SDS011;75540;50.000;7.360;2024-02-26T00:45:05;1.02;;;0.70;;
39400;SDS011;75540;50.000;7.360;2024-02-26T00:47:34;3.65;;;1.20;;
39400;SDS011;75540;50.000;7.360;2024-02-26T00:50:02;1.00;;;0.80;;
39400;SDS011;75540;50.000;7.360;2024-02-26T00:52:30;3.00;;;0.95;;
39400;SDS011;75540;50.000;7.360;2024-02-26T00:54:58;2.38;;;0.80;;
39400;SDS011;75540;50.000;7.360;2024-02-26T00:57:26;1.77;;;1.10;;
39400;SDS011;75540;50.000;7.360;2024-02-26T00:59:56;2.40;;;1.23;;
39400;SDS011;75540;50.000;7.360;2024-02-26T01:02:24;5.00;;;1.70;;
39400;SDS011;75540;50.000;7.360;2024-02-26T01:04:52;3.03;;;1.48;;
39400;SDS011;75540;50.000;7.360;2024-02-26T01:07:21;4.60;;;1.70;;
39400;SDS011;75540;50.000;7.360;2024-02-26T01:09:49;2.30;;;0.93;;
39400;SDS011;75540;50.000;7.360;2024-02-26T01:12:17;3.47;;;1.50;;
39400;SDS011;75540;50.000;7.360;2024-02-26T01:14:45;3.55;;;1.33;;
39400;SDS011;75540;50.000;7.360;2024-02-26T01:17:15;1.10;;;0.88;;
39400;SDS011;75540;50.000;7.360;2024-02-26T01:19:44;0.85;;;0.68;;
39400;SDS011;75540;50.000;7.360;2024-02-26T01:22:12;0.95;;;0.73;;
39400;SDS011;75540;50.000;7.360;2024-02-26T01:24:40;1.80;;;1.17;;
39400;SDS011;75540;50.000;7.360;2024-02-26T01:27:09;1.45;;;0.80;;
39400;SDS011;75540;50.000;7.360;2024-02-26T01:29:37;1.70;;;1.00;;
39400;SDS011;75540;50.000;7.360;2024-02-26T01:32:05;2.15;;;1.05;;
39400;SDS011;75540;50.000;7.360;2024-02-26T01:34:35;1.95;;;1.00;;
39400;SDS011;75540;50.000;7.360;2024-02-26T01:37:04;2.67;;;1.13;;
39400;SDS011;75540;50.000;7.360;2024-02-26T01:39:32;1.33;;;0.82;;
39400;SDS011;75540;50.000;7.360;2024-02-26T01:42:00;1.75;;;1.15;;
39400;SDS011;75540;50.000;7.360;2024-02-26T01:44:29;2.47;;;1.02;;
39400;SDS011;75540;50.000;7.360;2024-02-26T01:46:57;2.30;;;1.15;;
39400;SDS011;75540;50.000;7.360;2024-02-26T01:49:25;2.00;;;1.15;;
39400;SDS011;75540;50.000;7.360;2024-02-26T01:51:55;1.15;;;0.85;;
39400;SDS011;75540;50.000;7.360;2024-02-26T01:54:23;2.58;;;1.20;;
39400;SDS011;75540;50.000;7.360;2024-02-26T01:56:52;2.45;;;1.60;;
39400;SDS011;75540;50.000;7.360;2024-02-26T01:59:21;2.72;;;1.40;;
39400;SDS011;75540;50.000;7.360;2024-02-26T02:01:52;1.92;;;1.17;;
39400;SDS011;75540;50.000;7.360;2024-02-26T02:04:24;1.45;;;0.93;;
39400;SDS011;75540;50.000;7.360;2024-02-26T02:06:52;1.63;;;1.30;;
39400;SDS011;75540;50.000;7.360;2024-02-26T02:09:22;4.07;;;1.20;;
39400;SDS011;75540;50.000;7.360;2024-02-26T02:11:50;0.73;;;0.60;;
39400;SDS011;75540;50.000;7.360;2024-02-26T02:14:18;1.52;;;0.90;;
39400;SDS011;75540;50.000;7.360;2024-02-26T02:16:47;1.80;;;0.90;;
39400;SDS011;75540;50.000;7.360;2024-02-26T02:19:15;3.17;;;0.80;;
39400;SDS011;75540;50.000;7.360;2024-02-26T02:21:44;0.88;;;0.60;;
39400;SDS011;75540;50.000;7.360;2024-02-26T02:24:13;1.55;;;1.00;;
39400;SDS011;75540;50.000;7.360;2024-02-26T02:26:41;1.05;;;0.80;;
39400;SDS011;75540;50.000;7.360;2024-02-26T02:29:09;3.22;;;0.80;;
39400;SDS011;75540;50.000;7.360;2024-02-26T02:31:38;1.33;;;0.60;;
39400;SDS011;75540;50.000;7.360;2024-02-26T02:34:06;2.42;;;0.60;;
39400;SDS011;75540;50.000;7.360;2024-02-26T02:36:49;1.45;;;0.85;;
39400;SDS011;75540;50.000;7.360;2024-02-26T02:39:19;2.05;;;1.10;;
39400;SDS011;75540;50.000;7.360;2024-02-26T02:41:47;2.13;;;1.00;;
39400;SDS011;75540;50.000;7.360;2024-02-26T02:44:15;2.03;;;0.93;;
39400;SDS011;75540;50.000;7.360;2024-02-26T02:46:44;1.80;;;1.02;;
39400;SDS011;75540;50.000;7.360;2024-02-26T02:49:12;2.08;;;1.00;;
39400;SDS011;75540;50.000;7.360;2024-02-26T02:51:40;3.28;;;1.30;;
39400;SDS011;75540;50.000;7.360;2024-02-26T02:54:10;2.20;;;1.20;;
39400;SDS011;75540;50.000;7.360;2024-02-26T02:56:38;1.58;;;0.93;;
39400;SDS011;75540;50.000;7.360;2024-02-26T02:59:06;2.28;;;1.00;;
39400;SDS011;75540;50.000;7.360;2024-02-26T03:01:35;1.27;;;1.08;;
39400;SDS011;75540;50.000;7.360;2024-02-26T03:04:03;1.27;;;0.73;;
39400;SDS011;75540;50.000;7.360;2024-02-26T03:06:31;1.92;;;0.90;;
39400;SDS011;75540;50.000;7.360;2024-02-26T03:08:59;1.85;;;1.00;;
39400;SDS011;75540;50.000;7.360;2024-02-26T03:11:30;1.95;;;1.13;;
39400;SDS011;75540;50.000;7.360;2024-02-26T03:13:58;1.38;;;0.80;;
39400;SDS011;75540;50.000;7.360;2024-02-26T03:16:27;1.27;;;0.80;;
39400;SDS011;75540;50.000;7.360;2024-02-26T03:18:55;0.57;;;0.50;;
39400;SDS011;75540;50.000;7.360;2024-02-26T03:21:23;1.58;;;0.70;;
39400;SDS011;75540;50.000;7.360;2024-02-26T03:23:52;0.70;;;0.60;;
39400;SDS011;75540;50.000;7.360;2024-02-26T03:26:21;0.65;;;0.60;;
39400;SDS011;75540;50.000;7.360;2024-02-26T03:28:50;1.95;;;0.63;;
39400;SDS011;75540;50.000;7.360;2024-02-26T03:31:18;0.60;;;0.40;;
39400;SDS011;75540;50.000;7.360;2024-02-26T03:33:48;0.93;;;0.60;;
39400;SDS011;75540;50.000;7.360;2024-02-26T03:36:16;0.50;;;0.50;;
39400;SDS011;75540;50.000;7.360;2024-02-26T03:38:43;1.40;;;0.60;;
39400;SDS011;75540;50.000;7.360;2024-02-26T03:41:12;1.52;;;0.50;;
39400;SDS011;75540;50.000;7.360;2024-02-26T03:43:40;0.90;;;0.65;;
39400;SDS011;75540;50.000;7.360;2024-02-26T03:46:09;2.03;;;0.70;;
39400;SDS011;75540;50.000;7.360;2024-02-26T03:48:40;0.65;;;0.50;;
39400;SDS011;75540;50.000;7.360;2024-02-26T03:51:09;0.63;;;0.63;;
39400;SDS011;75540;50.000;7.360;2024-02-26T03:53:37;1.17;;;0.50;;
39400;SDS011;75540;50.000;7.360;2024-02-26T03:56:06;0.88;;;0.60;;
39400;SDS011;75540;50.000;7.360;2024-02-26T03:58:34;0.50;;;0.50;;
39400;SDS011;75540;50.000;7.360;2024-02-26T04:01:03;1.77;;;0.82;;
39400;SDS011;75540;50.000;7.360;2024-02-26T04:03:32;2.17;;;0.93;;
39400;SDS011;75540;50.000;7.360;2024-02-26T04:06:01;1.70;;;1.00;;
39400;SDS011;75540;50.000;7.360;2024-02-26T04:08:30;0.90;;;0.68;;
39400;SDS011;75540;50.000;7.360;2024-02-26T04:10:58;3.33;;;0.90;;
39400;SDS011;75540;50.000;7.360;2024-02-26T04:13:27;0.82;;;0.47;;
39400;SDS011;75540;50.000;7.360;2024-02-26T04:15:55;1.00;;;0.70;;
39400;SDS011;75540;50.000;7.360;2024-02-26T04:18:24;2.58;;;1.27;;
39400;SDS011;75540;50.000;7.360;2024-02-26T04:20:54;2.45;;;1.10;;
39400;SDS011;75540;50.000;7.360;2024-02-26T04:23:23;1.38;;;0.70;;
39400;SDS011;75540;50.000;7.360;2024-02-26T04:25:52;1.85;;;0.90;;
39400;SDS011;75540;50.000;7.360;2024-02-26T04:28:20;5.28;;;1.10;;
39400;SDS011;75540;50.000;7.360;2024-02-26T04:30:48;1.90;;;0.80;;
39400;SDS011;75540;50.000;7.360;2024-02-26T04:33:16;1.10;;;0.60;;
39400;SDS011;75540;50.000;7.360;2024-02-26T04:35:45;0.80;;;0.70;;
39400;SDS011;75540;50.000;7.360;2024-02-26T04:38:14;1.48;;;1.00;;
39400;SDS011;75540;50.000;7.360;2024-02-26T04:40:42;1.48;;;1.00;;
39400;SDS011;75540;50.000;7.360;2024-02-26T04:43:11;1.70;;;0.90;;
39400;SDS011;75540;50.000;7.360;2024-02-26T04:45:39;1.40;;;1.13;;
39400;SDS011;75540;50.000;7.360;2024-02-26T04:48:07;1.95;;;0.80;;
39400;SDS011;75540;50.000;7.360;2024-02-26T04:50:36;2.75;;;1.00;;
39400;SDS011;75540;50.000;7.360;2024-02-26T04:53:04;1.50;;;1.13;;
39400;SDS011;75540;50.000;7.360;2024-02-26T04:55:33;1.13;;;0.98;;
39400;SDS011;75540;50.000;7.360;2024-02-26T04:58:01;2.60;;;1.15;;
39400;SDS011;75540;50.000;7.360;2024-02-26T05:00:29;1.25;;;0.88;;
39400;SDS011;75540;50.000;7.360;2024-02-26T05:02:58;2.00;;;1.50;;
39400;SDS011;75540;50.000;7.360;2024-02-26T05:05:26;1.30;;;0.70;;
39400;SDS011;75540;50.000;7.360;2024-02-26T05:07:54;1.10;;;0.80;;
39400;SDS011;75540;50.000;7.360;2024-02-26T05:10:22;0.70;;;0.60;;
39400;SDS011;75540;50.000;7.360;2024-02-26T05:12:51;1.00;;;0.90;;
39400;SDS011;75540;50.000;7.360;2024-02-26T05:15:21;1.30;;;0.73;;
39400;SDS011;75540;50.000;7.360;2024-02-26T05:17:49;1.77;;;0.77;;
39400;SDS011;75540;50.000;7.360;2024-02-26T05:20:17;1.75;;;0.70;;
39400;SDS011;75540;50.000;7.360;2024-02-26T05:22:45;0.90;;;0.70;;
39400;SDS011;75540;50.000;7.360;2024-02-26T05:25:14;0.50;;;0.40;;
39400;SDS011;75540;50.000;7.360;2024-02-26T05:27:42;0.88;;;0.70;;
39400;SDS011;75540;50.000;7.360;2024-02-26T05:30:13;1.00;;;0.73;;
39400;SDS011;75540;50.000;7.360;2024-02-26T05:32:41;1.48;;;0.90;;
39400;SDS011;75540;50.000;7.360;2024-02-26T05:35:10;1.02;;;0.90;;
39400;SDS011;75540;50.000;7.360;2024-02-26T05:37:38;1.98;;;0.95;;
39400;SDS011;75540;50.000;7.360;2024-02-26T05:40:06;0.65;;;0.52;;
39400;SDS011;75540;50.000;7.360;2024-02-26T05:42:35;1.60;;;0.90;;
39400;SDS011;75540;50.000;7.360;2024-02-26T05:45:03;0.80;;;0.73;;
39400;SDS011;75540;50.000;7.360;2024-02-26T05:47:34;0.65;;;0.65;;
39400;SDS011;75540;50.000;7.360;2024-02-26T05:50:03;1.15;;;0.77;;
39400;SDS011;75540;50.000;7.360;2024-02-26T05:52:31;1.67;;;0.85;;
39400;SDS011;75540;50.000;7.360;2024-02-26T05:54:59;2.85;;;1.00;;
39400;SDS011;75540;50.000;7.360;2024-02-26T05:57:27;0.73;;;0.60;;
39400;SDS011;75540;50.000;7.360;2024-02-26T05:59:56;1.80;;;1.20;;
39400;SDS011;75540;50.000;7.360;2024-02-26T06:02:27;1.45;;;1.10;;
39400;SDS011;75540;50.000;7.360;2024-02-26T06:04:56;1.40;;;0.88;;
39400;SDS011;75540;50.000;7.360;2024-02-26T06:07:24;1.65;;;0.90;;
39400;SDS011;75540;50.000;7.360;2024-02-26T06:09:53;1.13;;;0.90;;
39400;SDS011;75540;50.000;7.360;2024-02-26T06:12:21;1.15;;;0.68;;
39400;SDS011;75540;50.000;7.360;2024-02-26T06:14:49;0.95;;;0.80;;
39400;SDS011;75540;50.000;7.360;2024-02-26T06:17:17;1.50;;;0.88;;
39400;SDS011;75540;50.000;7.360;2024-02-26T06:19:46;0.82;;;0.70;;
39400;SDS011;75540;50.000;7.360;2024-02-26T06:22:15;1.95;;;0.80;;
39400;SDS011;75540;50.000;7.360;2024-02-26T06:24:43;0.80;;;0.60;;
39400;SDS011;75540;50.000;7.360;2024-02-26T06:27:11;1.02;;;0.80;;
39400;SDS011;75540;50.000;7.360;2024-02-26T06:29:40;0.82;;;0.60;;
39400;SDS011;75540;50.000;7.360;2024-02-26T06:32:08;0.82;;;0.70;;
39400;SDS011;75540;50.000;7.360;2024-02-26T06:34:36;0.85;;;0.68;;
39400;SDS011;75540;50.000;7.360;2024-02-26T06:37:05;0.70;;;0.63;;
39400;SDS011;75540;50.000;7.360;2024-02-26T06:39:35;1.17;;;0.90;;
39400;SDS011;75540;50.000;7.360;2024-02-26T06:42:03;1.48;;;1.02;;
39400;SDS011;75540;50.000;7.360;2024-02-26T06:44:31;0.90;;;0.80;;
39400;SDS011;75540;50.000;7.360;2024-02-26T06:46:59;1.05;;;0.90;;
39400;SDS011;75540;50.000;7.360;2024-02-26T06:49:28;1.15;;;0.70;;
39400;SDS011;75540;50.000;7.360;2024-02-26T06:51:57;1.05;;;0.85;;
39400;SDS011;75540;50.000;7.360;2024-02-26T06:54:25;1.27;;;1.00;;
39400;SDS011;75540;50.000;7.360;2024-02-26T06:56:54;1.48;;;1.10;;
39400;SDS011;75540;50.000;7.360;2024-02-26T06:59:23;2.55;;;0.90;;
39400;SDS011;75540;50.000;7.360;2024-02-26T07:01:51;1.85;;;1.08;;
39400;SDS011;75540;50.000;7.360;2024-02-26T07:04:21;2.28;;;1.40;;
39400;SDS011;75540;50.000;7.360;2024-02-26T07:06:49;1.63;;;1.13;;
39400;SDS011;75540;50.000;7.360;2024-02-26T07:09:17;1.27;;;1.02;;
39400;SDS011;75540;50.000;7.360;2024-02-26T07:11:46;1.73;;;1.23;;
39400;SDS011;75540;50.000;7.360;2024-02-26T07:14:15;1.65;;;1.00;;
39400;SDS011;75540;50.000;7.360;2024-02-26T07:16:44;1.60;;;1.17;;
39400;SDS011;75540;50.000;7.360;2024-02-26T07:19:12;1.77;;;1.27;;
39400;SDS011;75540;50.000;7.360;2024-02-26T07:21:40;1.45;;;0.95;;
39400;SDS011;75540;50.000;7.360;2024-02-26T07:24:08;2.13;;;1.50;;
39400;SDS011;75540;50.000;7.360;2024-02-26T07:26:36;1.52;;;1.10;;
39400;SDS011;75540;50.000;7.360;2024-02-26T07:29:04;1.77;;;1.25;;
39400;SDS011;75540;50.000;7.360;2024-02-26T07:31:34;2.35;;;1.60;;
39400;SDS011;75540;50.000;7.360;2024-02-26T07:34:02;2.33;;;1.00;;
39400;SDS011;75540;50.000;7.360;2024-02-26T07:36:31;2.45;;;1.35;;
39400;SDS011;75540;50.000;7.360;2024-02-26T07:38:59;1.65;;;1.00;;
39400;SDS011;75540;50.000;7.360;2024-02-26T07:41:27;1.20;;;0.98;;
39400;SDS011;75540;50.000;7.360;2024-02-26T07:43:56;2.55;;;1.35;;
39400;SDS011;75540;50.000;7.360;2024-02-26T07:46:24;1.38;;;1.10;;
39400;SDS011;75540;50.000;7.360;2024-02-26T07:48:53;0.70;;;0.55;;
39400;SDS011;75540;50.000;7.360;2024-02-26T07:51:22;2.30;;;1.17;;
39400;SDS011;75540;50.000;7.360;2024-02-26T07:53:50;1.00;;;0.88;;
39400;SDS011;75540;50.000;7.360;2024-02-26T07:56:19;1.40;;;1.00;;
39400;SDS011;75540;50.000;7.360;2024-02-26T07:58:47;2.05;;;1.05;;
39400;SDS011;75540;50.000;7.360;2024-02-26T08:01:15;1.67;;;1.20;;
39400;SDS011;75540;50.000;7.360;2024-02-26T08:03:44;1.25;;;1.00;;
39400;SDS011;75540;50.000;7.360;2024-02-26T08:06:13;1.75;;;1.13;;
39400;SDS011;75540;50.000;7.360;2024-02-26T08:08:41;1.55;;;0.80;;
39400;SDS011;75540;50.000;7.360;2024-02-26T08:11:10;1.52;;;1.10;;
39400;SDS011;75540;50.000;7.360;2024-02-26T08:13:38;2.13;;;1.20;;
39400;SDS011;75540;50.000;7.360;2024-02-26T08:16:06;1.63;;;1.05;;
39400;SDS011;75540;50.000;7.360;2024-02-26T08:18:35;1.35;;;0.90;;
39400;SDS011;75540;50.000;7.360;2024-02-26T08:21:05;1.40;;;1.20;;
39400;SDS011;75540;50.000;7.360;2024-02-26T08:23:37;1.35;;;0.98;;
39400;SDS011;75540;50.000;7.360;2024-02-26T08:26:05;1.65;;;1.15;;
39400;SDS011;75540;50.000;7.360;2024-02-26T08:28:37;1.35;;;0.73;;
39400;SDS011;75540;50.000;7.360;2024-02-26T08:31:05;0.63;;;0.57;;
39400;SDS011;75540;50.000;7.360;2024-02-26T08:33:35;1.13;;;0.70;;
39400;SDS011;75540;50.000;7.360;2024-02-26T08:36:04;1.10;;;0.93;;
39400;SDS011;75540;50.000;7.360;2024-02-26T08:38:33;1.17;;;0.85;;
39400;SDS011;75540;50.000;7.360;2024-02-26T08:41:03;1.52;;;0.93;;
39400;SDS011;75540;50.000;7.360;2024-02-26T08:43:32;2.10;;;0.90;;
39400;SDS011;75540;50.000;7.360;2024-02-26T08:46:00;1.40;;;0.80;;
39400;SDS011;75540;50.000;7.360;2024-02-26T08:48:29;1.13;;;0.95;;
39400;SDS011;75540;50.000;7.360;2024-02-26T08:50:58;1.73;;;0.95;;
39400;SDS011;75540;50.000;7.360;2024-02-26T08:53:26;1.27;;;0.98;;
39400;SDS011;75540;50.000;7.360;2024-02-26T08:56:08;1.50;;;0.90;;
39400;SDS011;75540;50.000;7.360;2024-02-26T08:58:38;1.55;;;1.00;;
39400;SDS011;75540;50.000;7.360;2024-02-26T09:01:06;1.33;;;0.93;;
39400;SDS011;75540;50.000;7.360;2024-02-26T09:03:34;1.02;;;0.88;;
39400;SDS011;75540;50.000;7.360;2024-02-26T09:06:01;1.30;;;0.80;;
39400;SDS011;75540;50.000;7.360;2024-02-26T09:08:30;1.98;;;1.10;;
39400;SDS011;75540;50.000;7.360;2024-02-26T09:10:58;0.63;;;0.50;;
39400;SDS011;75540;50.000;7.360;2024-02-26T09:13:27;0.77;;;0.70;;
39400;SDS011;75540;50.000;7.360;2024-02-26T09:15:55;0.90;;;0.60;;
39400;SDS011;75540;50.000;7.360;2024-02-26T09:18:23;1.30;;;0.80;;
39400;SDS011;75540;50.000;7.360;2024-02-26T09:20:52;0.90;;;0.80;;
39400;SDS011;75540;50.000;7.360;2024-02-26T09:23:20;1.02;;;0.70;;
39400;SDS011;75540;50.000;7.360;2024-02-26T09:25:48;1.00;;;0.80;;
39400;SDS011;75540;50.000;7.360;2024-02-26T09:28:16;1.17;;;0.95;;
39400;SDS011;75540;50.000;7.360;2024-02-26T09:30:46;1.67;;;1.10;;
39400;SDS011;75540;50.000;7.360;2024-02-26T09:33:15;1.10;;;0.95;;
39400;SDS011;75540;50.000;7.360;2024-02-26T09:35:43;1.02;;;0.65;;
39400;SDS011;75540;50.000;7.360;2024-02-26T09:38:11;1.50;;;0.70;;
39400;SDS011;75540;50.000;7.360;2024-02-26T09:40:40;1.20;;;0.80;;
39400;SDS011;75540;50.000;7.360;2024-02-26T09:43:08;2.97;;;0.90;;
39400;SDS011;75540;50.000;7.360;2024-02-26T09:45:41;2.05;;;0.98;;
39400;SDS011;75540;50.000;7.360;2024-02-26T09:48:11;2.08;;;1.00;;
39400;SDS011;75540;50.000;7.360;2024-02-26T09:50:41;2.00;;;1.13;;
39400;SDS011;75540;50.000;7.360;2024-02-26T09:53:11;1.40;;;1.17;;
39400;SDS011;75540;50.000;7.360;2024-02-26T09:55:41;1.73;;;1.20;;
39400;SDS011;75540;50.000;7.360;2024-02-26T09:58:09;1.27;;;0.88;;
39400;SDS011;75540;50.000;7.360;2024-02-26T10:00:46;1.45;;;1.08;;
39400;SDS011;75540;50.000;7.360;2024-02-26T10:03:19;1.77;;;1.00;;
39400;SDS011;75540;50.000;7.360;2024-02-26T10:05:49;2.08;;;1.00;;
39400;SDS011;75540;50.000;7.360;2024-02-26T10:08:22;0.93;;;0.82;;
39400;SDS011;75540;50.000;7.360;2024-02-26T10:10:51;1.02;;;0.88;;
39400;SDS011;75540;50.000;7.360;2024-02-26T10:13:20;1.50;;;1.05;;
39400;SDS011;75540;50.000;7.360;2024-02-26T10:15:49;1.13;;;0.90;;
39400;SDS011;75540;50.000;7.360;2024-02-26T10:18:19;1.60;;;1.35;;
39400;SDS011;75540;50.000;7.360;2024-02-26T10:20:58;2.17;;;0.80;;
39400;SDS011;75540;50.000;7.360;2024-02-26T10:23:27;1.60;;;1.00;;
39400;SDS011;75540;50.000;7.360;2024-02-26T10:25:58;1.40;;;1.00;;
39400;SDS011;75540;50.000;7.360;2024-02-26T10:28:26;0.80;;;0.70;;
39400;SDS011;75540;50.000;7.360;2024-02-26T10:30:57;0.90;;;0.80;;
39400;SDS011;75540;50.000;7.360;2024-02-26T10:33:28;0.80;;;0.80;;
39400;SDS011;75540;50.000;7.360;2024-02-26T10:36:01;1.23;;;0.75;;
39400;SDS011;75540;50.000;7.360;2024-02-26T10:38:29;1.40;;;1.10;;
39400;SDS011;75540;50.000;7.360;2024-02-26T10:40:58;1.38;;;0.90;;
39400;SDS011;75540;50.000;7.360;2024-02-26T10:43:26;3.45;;;1.70;;
39400;SDS011;75540;50.000;7.360;2024-02-26T10:45:54;1.48;;;1.13;;
39400;SDS011;75540;50.000;7.360;2024-02-26T10:48:23;1.08;;;0.95;;
39400;SDS011;75540;50.000;7.360;2024-02-26T10:50:53;2.38;;;1.52;;
39400;SDS011;75540;50.000;7.360;2024-02-26T10:53:23;1.40;;;0.90;;
39400;SDS011;75540;50.000;7.360;2024-02-26T10:55:54;1.67;;;1.15;;
39400;SDS011;75540;50.000;7.360;2024-02-26T10:58:24;1.65;;;1.25;;
39400;SDS011;75540;50.000;7.360;2024-02-26T11:00:53;1.77;;;1.15;;
39400;SDS011;75540;50.000;7.360;2024-02-26T11:03:25;2.90;;;1.20;;
39400;SDS011;75540;50.000;7.360;2024-02-26T11:05:55;2.40;;;1.20;;
39400;SDS011;75540;50.000;7.360;2024-02-26T11:08:25;1.50;;;1.10;;
39400;SDS011;75540;50.000;7.360;2024-02-26T11:10:54;1.25;;;1.00;;
39400;SDS011;75540;50.000;7.360;2024-02-26T11:13:23;1.95;;;1.20;;
39400;SDS011;75540;50.000;7.360;2024-02-26T11:15:56;5.45;;;3.67;;
39400;SDS011;75540;50.000;7.360;2024-02-26T11:18:25;3.40;;;1.20;;
39400;SDS011;75540;50.000;7.360;2024-02-26T11:20:56;4.18;;;3.00;;
39400;SDS011;75540;50.000;7.360;2024-02-26T11:23:25;1.85;;;1.38;;
39400;SDS011;75540;50.000;7.360;2024-02-26T11:25:53;2.53;;;1.77;;
39400;SDS011;75540;50.000;7.360;2024-02-26T11:28:26;2.03;;;1.23;;
39400;SDS011;75540;50.000;7.360;2024-02-26T11:30:56;2.65;;;1.77;;
39400;SDS011;75540;50.000;7.360;2024-02-26T11:33:26;1.27;;;0.98;;
39400;SDS011;75540;50.000;7.360;2024-02-26T11:35:57;2.45;;;1.70;;
39400;SDS011;75540;50.000;7.360;2024-02-26T11:38:25;2.05;;;1.48;;
39400;SDS011;75540;50.000;7.360;2024-02-26T11:40:54;2.42;;;1.55;;
39400;SDS011;75540;50.000;7.360;2024-02-26T11:43:23;1.67;;;1.10;;
39400;SDS011;75540;50.000;7.360;2024-02-26T11:45:51;2.50;;;1.45;;
39400;SDS011;75540;50.000;7.360;2024-02-26T11:48:21;1.35;;;1.25;;
39400;SDS011;75540;50.000;7.360;2024-02-26T11:50:51;1.73;;;1.27;;
39400;SDS011;75540;50.000;7.360;2024-02-26T11:53:24;2.00;;;1.15;;
39400;SDS011;75540;50.000;7.360;2024-02-26T11:56:12;2.33;;;1.52;;
39400;SDS011;75540;50.000;7.360;2024-02-26T11:58:41;3.42;;;2.17;;
39400;SDS011;75540;50.000;7.360;2024-02-26T12:04:04;5.40;;;2.03;;
39400;SDS011;75540;50.000;7.360;2024-02-26T12:06:40;2.80;;;1.83;;
39400;SDS011;75540;50.000;7.360;2024-02-26T12:09:11;2.65;;;2.20;;
39400;SDS011;75540;50.000;7.360;2024-02-26T12:11:41;3.08;;;2.20;;
39400;SDS011;75540;50.000;7.360;2024-02-26T12:14:10;3.13;;;1.90;;
39400;SDS011;75540;50.000;7.360;2024-02-26T12:16:39;2.72;;;1.98;;
39400;SDS011;75540;50.000;7.360;2024-02-26T12:19:09;3.85;;;1.85;;
39400;SDS011;75540;50.000;7.360;2024-02-26T12:21:37;2.30;;;1.75;;
39400;SDS011;75540;50.000;7.360;2024-02-26T12:24:13;3.50;;;2.35;;
39400;SDS011;75540;50.000;7.360;2024-02-26T12:26:43;3.08;;;2.08;;
39400;SDS011;75540;50.000;7.360;2024-02-26T12:29:11;2.80;;;1.92;;
39400;SDS011;75540;50.000;7.360;2024-02-26T12:31:40;3.25;;;2.30;;
39400;SDS011;75540;50.000;7.360;2024-02-26T12:34:09;3.30;;;1.67;;
39400;SDS011;75540;50.000;7.360;2024-02-26T12:36:37;3.45;;;2.38;;
39400;SDS011;75540;50.000;7.360;2024-02-26T12:39:07;2.78;;;2.00;;
39400;SDS011;75540;50.000;7.360;2024-02-26T12:41:38;2.65;;;1.95;;
39400;SDS011;75540;50.000;7.360;2024-02-26T12:44:07;3.03;;;1.75;;
39400;SDS011;75540;50.000;7.360;2024-02-26T12:46:35;3.35;;;2.25;;
39400;SDS011;75540;50.000;7.360;2024-02-26T12:49:03;3.28;;;2.28;;
39400;SDS011;75540;50.000;7.360;2024-02-26T12:51:33;2.90;;;2.10;;
39400;SDS011;75540;50.000;7.360;2024-02-26T12:54:01;3.90;;;2.58;;
39400;SDS011;75540;50.000;7.360;2024-02-26T12:56:29;4.07;;;2.20;;
39400;SDS011;75540;50.000;7.360;2024-02-26T12:58:59;3.45;;;2.53;;
39400;SDS011;75540;50.000;7.360;2024-02-26T13:01:28;3.42;;;2.25;;
39400;SDS011;75540;50.000;7.360;2024-02-26T13:03:56;2.97;;;2.42;;
39400;SDS011;75540;50.000;7.360;2024-02-26T13:06:27;2.97;;;2.63;;
39400;SDS011;75540;50.000;7.360;2024-02-26T13:08:56;4.05;;;2.72;;
39400;SDS011;75540;50.000;7.360;2024-02-26T13:11:25;3.05;;;2.20;;
39400;SDS011;75540;50.000;7.360;2024-02-26T13:13:55;3.00;;;2.17;;
39400;SDS011;75540;50.000;7.360;2024-02-26T13:16:25;3.60;;;2.28;;
39400;SDS011;75540;50.000;7.360;2024-02-26T13:18:54;3.53;;;2.60;;
39400;SDS011;75540;50.000;7.360;2024-02-26T13:21:22;4.20;;;2.70;;
39400;SDS011;75540;50.000;7.360;2024-02-26T13:23:52;3.67;;;2.33;;
39400;SDS011;75540;50.000;7.360;2024-02-26T13:26:22;2.72;;;1.88;;
39400;SDS011;75540;50.000;7.360;2024-02-26T13:31:45;3.35;;;2.60;;
39400;SDS011;75540;50.000;7.360;2024-02-26T13:34:22;4.85;;;3.05;;
39400;SDS011;75540;50.000;7.360;2024-02-26T13:36:52;4.35;;;3.10;;
39400;SDS011;75540;50.000;7.360;2024-02-26T13:39:22;4.70;;;3.70;;
39400;SDS011;75540;50.000;7.360;2024-02-26T13:41:51;4.00;;;2.78;;
39400;SDS011;75540;50.000;7.360;2024-02-26T13:44:21;4.57;;;2.80;;
39400;SDS011;75540;50.000;7.360;2024-02-26T13:46:51;4.85;;;3.25;;
39400;SDS011;75540;50.000;7.360;2024-02-26T13:49:19;4.75;;;3.10;;
39400;SDS011;75540;50.000;7.360;2024-02-26T13:51:47;4.93;;;3.53;;
39400;SDS011;75540;50.000;7.360;2024-02-26T13:54:15;5.30;;;3.65;;
39400;SDS011;75540;50.000;7.360;2024-02-26T13:56:43;6.93;;;4.18;;
39400;SDS011;75540;50.000;7.360;2024-02-26T13:59:15;5.30;;;3.75;;
39400;SDS011;75540;50.000;7.360;2024-02-26T14:01:43;8.95;;;6.65;;
39400;SDS011;75540;50.000;7.360;2024-02-26T14:04:12;4.97;;;3.40;;
39400;SDS011;75540;50.000;7.360;2024-02-26T14:06:41;6.35;;;3.78;;
39400;SDS011;75540;50.000;7.360;2024-02-26T14:09:09;7.60;;;5.07;;
39400;SDS011;75540;50.000;7.360;2024-02-26T14:11:38;6.50;;;4.18;;
39400;SDS011;75540;50.000;7.360;2024-02-26T14:14:06;6.50;;;4.03;;
39400;SDS011;75540;50.000;7.360;2024-02-26T14:16:34;5.78;;;3.60;;
39400;SDS011;75540;50.000;7.360;2024-02-26T14:19:03;7.13;;;4.13;;
39400;SDS011;75540;50.000;7.360;2024-02-26T14:21:33;5.63;;;3.90;;
39400;SDS011;75540;50.000;7.360;2024-02-26T14:24:03;6.50;;;4.03;;
39400;SDS011;75540;50.000;7.360;2024-02-26T14:26:32;5.93;;;4.05;;
39400;SDS011;75540;50.000;7.360;2024-02-26T14:29:00;4.40;;;3.08;;
39400;SDS011;75540;50.000;7.360;2024-02-26T14:31:28;4.70;;;3.38;;
39400;SDS011;75540;50.000;7.360;2024-02-26T14:33:56;5.55;;;3.25;;
39400;SDS011;75540;50.000;7.360;2024-02-26T14:36:24;3.92;;;2.72;;
39400;SDS011;75540;50.000;7.360;2024-02-26T14:38:54;6.05;;;4.05;;
39400;SDS011;75540;50.000;7.360;2024-02-26T14:41:23;5.45;;;3.80;;
39400;SDS011;75540;50.000;7.360;2024-02-26T14:43:52;5.93;;;3.88;;
39400;SDS011;75540;50.000;7.360;2024-02-26T14:46:20;6.35;;;4.65;;
39400;SDS011;75540;50.000;7.360;2024-02-26T14:48:48;7.10;;;4.10;;
39400;SDS011;75540;50.000;7.360;2024-02-26T14:51:16;6.35;;;3.95;;
39400;SDS011;75540;50.000;7.360;2024-02-26T14:53:44;6.03;;;3.83;;
39400;SDS011;75540;50.000;7.360;2024-02-26T14:56:14;6.68;;;4.68;;
39400;SDS011;75540;50.000;7.360;2024-02-26T14:58:42;6.03;;;3.88;;
39400;SDS011;75540;50.000;7.360;2024-02-26T15:01:10;5.53;;;3.58;;
39400;SDS011;75540;50.000;7.360;2024-02-26T15:03:38;5.45;;;3.00;;